sensor_id;sensor_type;location;lat;lon;timestamp;temperature;humidity
74946;HTU21D;63509;45.250;38.102;2023-09-07T00:01:11;21.61;57.33
74946;HTU21D;63509;45.250;38.102;2023-09-07T00:03:37;21.62;57.48
74946;HTU21D;63509;45.250;38.102;2023-09-07T00:06:07;21.62;57.42
74946;HTU21D;63509;45.250;38.102;2023-09-07T00:08:33;21.63;57.45
74946;HTU21D;63509;45.250;38.102;2023-09-07T00:11:06;21.64;57.37
74946;HTU21D;63509;45.250;38.102;2023-09-07T00:13:33;21.64;57.36
74946;HTU21D;63509;45.250;38.102;2023-09-07T00:16:00;21.64;57.39
74946;HTU21D;63509;45.250;38.102;2023-09-07T00:18:27;21.64;57.47
74946;HTU21D;63509;45.250;38.102;2023-09-07T00:20:53;21.63;57.35
74946;HTU21D;63509;45.250;38.102;2023-09-07T00:23:20;21.63;57.24
74946;HTU21D;63509;45.250;38.102;2023-09-07T00:25:46;21.63;57.40
74946;HTU21D;63509;45.250;38.102;2023-09-07T00:28:12;21.60;57.28
74946;HTU21D;63509;45.250;38.102;2023-09-07T00:30:38;21.59;57.44
74946;HTU21D;63509;45.250;38.102;2023-09-07T00:33:05;21.54;57.29
74946;HTU21D;63509;45.250;38.102;2023-09-07T00:35:31;21.51;57.64
74946;HTU21D;63509;45.250;38.102;2023-09-07T00:37:58;21.46;57.71
74946;HTU21D;63509;45.250;38.102;2023-09-07T00:40:24;21.39;57.87
74946;HTU21D;63509;45.250;38.102;2023-09-07T00:42:53;21.35;57.91
74946;HTU21D;63509;45.250;38.102;2023-09-07T00:45:19;21.29;57.98
74946;HTU21D;63509;45.250;38.102;2023-09-07T00:47:45;21.23;58.09
74946;HTU21D;63509;45.250;38.102;2023-09-07T00:50:12;21.15;58.21
74946;HTU21D;63509;45.250;38.102;2023-09-07T00:52:43;21.08;58.16
74946;HTU21D;63509;45.250;38.102;2023-09-07T00:55:09;21.00;58.24
74946;HTU21D;63509;45.250;38.102;2023-09-07T00:57:37;20.93;58.41
74946;HTU21D;63509;45.250;38.102;2023-09-07T01:00:06;20.89;58.75
74946;HTU21D;63509;45.250;38.102;2023-09-07T01:02:34;20.85;58.83
74946;HTU21D;63509;45.250;38.102;2023-09-07T01:05:01;20.83;59.03
74946;HTU21D;63509;45.250;38.102;2023-09-07T01:07:46;20.80;58.80
74946;HTU21D;63509;45.250;38.102;2023-09-07T01:10:13;20.78;59.22
74946;HTU21D;63509;45.250;38.102;2023-09-07T01:12:40;20.78;59.06
74946;HTU21D;63509;45.250;38.102;2023-09-07T01:15:07;20.75;59.26
74946;HTU21D;63509;45.250;38.102;2023-09-07T01:17:34;20.72;59.42
74946;HTU21D;63509;45.250;38.102;2023-09-07T01:20:03;20.73;59.46
74946;HTU21D;63509;45.250;38.102;2023-09-07T01:22:32;20.69;59.61
74946;HTU21D;63509;45.250;38.102;2023-09-07T01:25:00;20.66;59.57
74946;HTU21D;63509;45.250;38.102;2023-09-07T01:27:26;20.63;59.78
74946;HTU21D;63509;45.250;38.102;2023-09-07T01:29:53;20.59;59.71
74946;HTU21D;63509;45.250;38.102;2023-09-07T01:32:19;20.55;59.90
74946;HTU21D;63509;45.250;38.102;2023-09-07T01:34:45;20.51;60.01
74946;HTU21D;63509;45.250;38.102;2023-09-07T01:37:11;20.48;59.96
74946;HTU21D;63509;45.250;38.102;2023-09-07T01:39:37;20.44;60.06
74946;HTU21D;63509;45.250;38.102;2023-09-07T01:42:03;20.39;60.20
74946;HTU21D;63509;45.250;38.102;2023-09-07T01:44:29;20.33;60.10
74946;HTU21D;63509;45.250;38.102;2023-09-07T01:46:55;20.30;60.34
74946;HTU21D;63509;45.250;38.102;2023-09-07T01:49:22;20.27;60.35
74946;HTU21D;63509;45.250;38.102;2023-09-07T01:51:51;20.22;60.40
74946;HTU21D;63509;45.250;38.102;2023-09-07T01:54:18;20.18;60.59
74946;HTU21D;63509;45.250;38.102;2023-09-07T01:56:44;20.15;60.49
74946;HTU21D;63509;45.250;38.102;2023-09-07T01:59:10;20.10;60.44
74946;HTU21D;63509;45.250;38.102;2023-09-07T02:01:36;20.01;60.38
74946;HTU21D;63509;45.250;38.102;2023-09-07T02:04:04;19.91;60.57
74946;HTU21D;63509;45.250;38.102;2023-09-07T02:06:31;19.85;60.76
74946;HTU21D;63509;45.250;38.102;2023-09-07T02:08:57;19.81;60.77
74946;HTU21D;63509;45.250;38.102;2023-09-07T02:11:23;19.75;61.03
74946;HTU21D;63509;45.250;38.102;2023-09-07T02:13:50;19.73;61.02
74946;HTU21D;63509;45.250;38.102;2023-09-07T02:16:16;19.71;60.99
74946;HTU21D;63509;45.250;38.102;2023-09-07T02:18:44;19.69;61.22
74946;HTU21D;63509;45.250;38.102;2023-09-07T02:21:11;19.71;61.34
74946;HTU21D;63509;45.250;38.102;2023-09-07T02:23:38;19.71;61.20
74946;HTU21D;63509;45.250;38.102;2023-09-07T02:26:04;19.70;61.41
74946;HTU21D;63509;45.250;38.102;2023-09-07T02:28:31;19.70;61.47
74946;HTU21D;63509;45.250;38.102;2023-09-07T02:31:04;19.70;61.22
74946;HTU21D;63509;45.250;38.102;2023-09-07T02:33:31;19.67;61.57
74946;HTU21D;63509;45.250;38.102;2023-09-07T02:35:58;19.68;61.57
74946;HTU21D;63509;45.250;38.102;2023-09-07T02:38:25;19.71;61.65
74946;HTU21D;63509;45.250;38.102;2023-09-07T02:40:51;19.73;61.62
74946;HTU21D;63509;45.250;38.102;2023-09-07T02:43:19;19.75;61.68
74946;HTU21D;63509;45.250;38.102;2023-09-07T02:45:45;19.79;61.67
74946;HTU21D;63509;45.250;38.102;2023-09-07T02:48:12;19.80;61.73
74946;HTU21D;63509;45.250;38.102;2023-09-07T02:50:40;19.82;61.66
74946;HTU21D;63509;45.250;38.102;2023-09-07T02:53:06;19.82;61.79
74946;HTU21D;63509;45.250;38.102;2023-09-07T02:55:33;19.81;61.81
74946;HTU21D;63509;45.250;38.102;2023-09-07T02:58:03;19.80;61.75
74946;HTU21D;63509;45.250;38.102;2023-09-07T03:00:29;19.83;61.86
74946;HTU21D;63509;45.250;38.102;2023-09-07T03:02:55;19.83;61.86
74946;HTU21D;63509;45.250;38.102;2023-09-07T03:05:22;19.84;61.94
74946;HTU21D;63509;45.250;38.102;2023-09-07T03:07:49;19.87;61.95
74946;HTU21D;63509;45.250;38.102;2023-09-07T03:10:17;19.88;61.86
74946;HTU21D;63509;45.250;38.102;2023-09-07T03:12:45;19.85;61.92
74946;HTU21D;63509;45.250;38.102;2023-09-07T03:15:11;19.84;61.92
74946;HTU21D;63509;45.250;38.102;2023-09-07T03:17:39;19.82;62.01
74946;HTU21D;63509;45.250;38.102;2023-09-07T03:20:07;19.81;62.10
74946;HTU21D;63509;45.250;38.102;2023-09-07T03:22:43;19.79;62.12
74946;HTU21D;63509;45.250;38.102;2023-09-07T03:25:10;19.76;61.63
74946;HTU21D;63509;45.250;38.102;2023-09-07T03:27:37;19.74;62.08
74946;HTU21D;63509;45.250;38.102;2023-09-07T03:30:06;19.74;62.17
74946;HTU21D;63509;45.250;38.102;2023-09-07T03:32:34;19.74;62.26
74946;HTU21D;63509;45.250;38.102;2023-09-07T03:35:02;19.75;62.32
74946;HTU21D;63509;45.250;38.102;2023-09-07T03:37:28;19.77;62.38
74946;HTU21D;63509;45.250;38.102;2023-09-07T03:39:55;19.80;62.37
74946;HTU21D;63509;45.250;38.102;2023-09-07T03:42:22;19.81;62.38
74946;HTU21D;63509;45.250;38.102;2023-09-07T03:44:49;19.83;62.41
74946;HTU21D;63509;45.250;38.102;2023-09-07T03:47:15;19.82;62.44
74946;HTU21D;63509;45.250;38.102;2023-09-07T03:49:42;19.83;62.51
74946;HTU21D;63509;45.250;38.102;2023-09-07T03:52:09;19.84;62.50
74946;HTU21D;63509;45.250;38.102;2023-09-07T03:54:35;19.86;62.51
74946;HTU21D;63509;45.250;38.102;2023-09-07T03:57:02;19.88;62.53
74946;HTU21D;63509;45.250;38.102;2023-09-07T03:59:29;19.87;62.55
74946;HTU21D;63509;45.250;38.102;2023-09-07T04:01:56;19.87;62.52
74946;HTU21D;63509;45.250;38.102;2023-09-07T04:04:22;19.86;62.57
74946;HTU21D;63509;45.250;38.102;2023-09-07T04:06:48;19.86;62.66
74946;HTU21D;63509;45.250;38.102;2023-09-07T04:09:15;19.89;62.68
74946;HTU21D;63509;45.250;38.102;2023-09-07T04:11:42;19.94;62.58
74946;HTU21D;63509;45.250;38.102;2023-09-07T04:14:08;19.97;62.55
74946;HTU21D;63509;45.250;38.102;2023-09-07T04:16:34;19.98;62.62
74946;HTU21D;63509;45.250;38.102;2023-09-07T04:19:01;19.99;62.58
74946;HTU21D;63509;45.250;38.102;2023-09-07T04:21:27;20.01;62.64
74946;HTU21D;63509;45.250;38.102;2023-09-07T04:23:53;20.04;62.67
74946;HTU21D;63509;45.250;38.102;2023-09-07T04:26:20;20.05;62.63
74946;HTU21D;63509;45.250;38.102;2023-09-07T04:28:46;20.06;62.69
74946;HTU21D;63509;45.250;38.102;2023-09-07T04:31:12;20.07;62.64
74946;HTU21D;63509;45.250;38.102;2023-09-07T04:33:38;20.12;62.73
74946;HTU21D;63509;45.250;38.102;2023-09-07T04:38:36;20.20;62.66
74946;HTU21D;63509;45.250;38.102;2023-09-07T04:41:10;20.26;62.60
74946;HTU21D;63509;45.250;38.102;2023-09-07T04:43:38;20.34;62.66
74946;HTU21D;63509;45.250;38.102;2023-09-07T04:46:14;20.43;62.61
74946;HTU21D;63509;45.250;38.102;2023-09-07T04:48:41;20.54;62.59
74946;HTU21D;63509;45.250;38.102;2023-09-07T04:51:09;20.65;62.53
74946;HTU21D;63509;45.250;38.102;2023-09-07T04:53:36;20.76;62.16
74946;HTU21D;63509;45.250;38.102;2023-09-07T04:56:04;20.88;62.42
74946;HTU21D;63509;45.250;38.102;2023-09-07T04:58:32;21.01;62.17
74946;HTU21D;63509;45.250;38.102;2023-09-07T05:01:02;21.18;61.95
74946;HTU21D;63509;45.250;38.102;2023-09-07T05:03:29;21.35;61.63
74946;HTU21D;63509;45.250;38.102;2023-09-07T05:05:56;21.49;61.43
74946;HTU21D;63509;45.250;38.102;2023-09-07T05:08:23;21.64;61.15
74946;HTU21D;63509;45.250;38.102;2023-09-07T05:11:01;21.81;60.84
74946;HTU21D;63509;45.250;38.102;2023-09-07T05:13:29;21.94;60.60
74946;HTU21D;63509;45.250;38.102;2023-09-07T05:15:58;22.08;60.47
74946;HTU21D;63509;45.250;38.102;2023-09-07T05:18:26;22.25;60.15
74946;HTU21D;63509;45.250;38.102;2023-09-07T05:20:52;22.40;59.64
74946;HTU21D;63509;45.250;38.102;2023-09-07T05:23:19;22.52;59.55
74946;HTU21D;63509;45.250;38.102;2023-09-07T05:25:48;22.68;59.23
74946;HTU21D;63509;45.250;38.102;2023-09-07T05:28:17;22.83;58.90
74946;HTU21D;63509;45.250;38.102;2023-09-07T05:30:43;22.99;59.11
74946;HTU21D;63509;45.250;38.102;2023-09-07T05:33:11;23.20;58.48
74946;HTU21D;63509;45.250;38.102;2023-09-07T05:35:37;23.37;58.67
74946;HTU21D;63509;45.250;38.102;2023-09-07T05:38:04;23.55;58.19
74946;HTU21D;63509;45.250;38.102;2023-09-07T05:40:39;23.75;58.22
74946;HTU21D;63509;45.250;38.102;2023-09-07T05:43:06;23.97;57.90
74946;HTU21D;63509;45.250;38.102;2023-09-07T05:45:38;24.19;57.51
74946;HTU21D;63509;45.250;38.102;2023-09-07T05:48:06;24.42;57.07
74946;HTU21D;63509;45.250;38.102;2023-09-07T05:50:34;24.62;56.65
74946;HTU21D;63509;45.250;38.102;2023-09-07T05:53:01;24.83;56.26
74946;HTU21D;63509;45.250;38.102;2023-09-07T05:55:28;25.06;56.14
74946;HTU21D;63509;45.250;38.102;2023-09-07T05:57:54;25.31;55.74
74946;HTU21D;63509;45.250;38.102;2023-09-07T06:00:22;25.58;55.40
74946;HTU21D;63509;45.250;38.102;2023-09-07T06:02:50;25.82;54.81
74946;HTU21D;63509;45.250;38.102;2023-09-07T06:05:17;26.03;54.09
74946;HTU21D;63509;45.250;38.102;2023-09-07T06:07:44;26.21;53.72
74946;HTU21D;63509;45.250;38.102;2023-09-07T06:10:12;26.41;53.39
74946;HTU21D;63509;45.250;38.102;2023-09-07T06:12:39;26.61;52.73
74946;HTU21D;63509;45.250;38.102;2023-09-07T06:15:07;26.73;52.39
74946;HTU21D;63509;45.250;38.102;2023-09-07T06:17:33;26.92;52.10
74946;HTU21D;63509;45.250;38.102;2023-09-07T06:19:59;27.07;51.59
74946;HTU21D;63509;45.250;38.102;2023-09-07T06:22:28;27.24;51.27
74946;HTU21D;63509;45.250;38.102;2023-09-07T06:24:54;27.41;50.95
74946;HTU21D;63509;45.250;38.102;2023-09-07T06:27:21;27.61;50.44
74946;HTU21D;63509;45.250;38.102;2023-09-07T06:29:47;27.83;49.84
74946;HTU21D;63509;45.250;38.102;2023-09-07T06:32:14;27.98;49.07
74946;HTU21D;63509;45.250;38.102;2023-09-07T06:34:40;28.13;48.61
74946;HTU21D;63509;45.250;38.102;2023-09-07T06:37:07;28.26;48.23
74946;HTU21D;63509;45.250;38.102;2023-09-07T06:39:34;28.38;47.93
74946;HTU21D;63509;45.250;38.102;2023-09-07T06:42:00;28.54;47.38
74946;HTU21D;63509;45.250;38.102;2023-09-07T06:44:34;28.69;47.25
74946;HTU21D;63509;45.250;38.102;2023-09-07T06:47:01;28.84;46.89
74946;HTU21D;63509;45.250;38.102;2023-09-07T06:49:28;29.04;46.47
74946;HTU21D;63509;45.250;38.102;2023-09-07T06:51:56;29.26;46.18
74946;HTU21D;63509;45.250;38.102;2023-09-07T06:54:23;29.47;45.58
74946;HTU21D;63509;45.250;38.102;2023-09-07T06:56:49;29.66;45.05
74946;HTU21D;63509;45.250;38.102;2023-09-07T06:59:15;29.85;44.44
74946;HTU21D;63509;45.250;38.102;2023-09-07T07:01:42;29.97;43.87
74946;HTU21D;63509;45.250;38.102;2023-09-07T07:04:08;30.11;43.67
74946;HTU21D;63509;45.250;38.102;2023-09-07T07:06:35;30.32;42.90
74946;HTU21D;63509;45.250;38.102;2023-09-07T07:09:02;30.45;42.48
74946;HTU21D;63509;45.250;38.102;2023-09-07T07:11:28;30.55;42.03
74946;HTU21D;63509;45.250;38.102;2023-09-07T07:13:55;30.68;41.65
74946;HTU21D;63509;45.250;38.102;2023-09-07T07:16:21;30.77;41.22
74946;HTU21D;63509;45.250;38.102;2023-09-07T07:18:48;30.86;40.55
74946;HTU21D;63509;45.250;38.102;2023-09-07T07:21:15;30.85;39.93
74946;HTU21D;63509;45.250;38.102;2023-09-07T07:23:41;30.89;40.09
74946;HTU21D;63509;45.250;38.102;2023-09-07T07:26:08;30.99;39.86
74946;HTU21D;63509;45.250;38.102;2023-09-07T07:28:35;31.15;39.59
74946;HTU21D;63509;45.250;38.102;2023-09-07T07:31:09;31.31;39.88
74946;HTU21D;63509;45.250;38.102;2023-09-07T07:33:37;31.43;39.17
74946;HTU21D;63509;45.250;38.102;2023-09-07T07:36:04;31.57;38.99
74946;HTU21D;63509;45.250;38.102;2023-09-07T07:38:31;31.70;38.66
74946;HTU21D;63509;45.250;38.102;2023-09-07T07:40:58;31.83;38.14
74946;HTU21D;63509;45.250;38.102;2023-09-07T07:43:25;31.96;37.48
74946;HTU21D;63509;45.250;38.102;2023-09-07T07:45:53;32.05;37.12
74946;HTU21D;63509;45.250;38.102;2023-09-07T07:48:21;32.16;36.31
74946;HTU21D;63509;45.250;38.102;2023-09-07T07:50:48;32.27;36.37
74946;HTU21D;63509;45.250;38.102;2023-09-07T07:53:15;32.43;36.28
74946;HTU21D;63509;45.250;38.102;2023-09-07T07:55:42;32.62;36.10
74946;HTU21D;63509;45.250;38.102;2023-09-07T07:58:13;32.81;35.60
74946;HTU21D;63509;45.250;38.102;2023-09-07T08:00:40;32.96;35.15
74946;HTU21D;63509;45.250;38.102;2023-09-07T08:03:07;33.12;34.71
74946;HTU21D;63509;45.250;38.102;2023-09-07T08:05:36;33.17;34.33
74946;HTU21D;63509;45.250;38.102;2023-09-07T08:08:06;33.21;34.03
74946;HTU21D;63509;45.250;38.102;2023-09-07T08:10:35;33.27;33.55
74946;HTU21D;63509;45.250;38.102;2023-09-07T08:13:03;33.34;33.30
74946;HTU21D;63509;45.250;38.102;2023-09-07T08:15:32;33.34;33.34
74946;HTU21D;63509;45.250;38.102;2023-09-07T08:18:00;33.37;32.95
74946;HTU21D;63509;45.250;38.102;2023-09-07T08:20:26;33.41;32.99
74946;HTU21D;63509;45.250;38.102;2023-09-07T08:22:53;33.45;32.81
74946;HTU21D;63509;45.250;38.102;2023-09-07T08:25:20;33.56;32.51
74946;HTU21D;63509;45.250;38.102;2023-09-07T08:27:47;33.67;32.23
74946;HTU21D;63509;45.250;38.102;2023-09-07T08:30:15;33.70;34.28
74946;HTU21D;63509;45.250;38.102;2023-09-07T08:32:43;33.76;32.30
74946;HTU21D;63509;45.250;38.102;2023-09-07T08:35:10;33.85;31.85
74946;HTU21D;63509;45.250;38.102;2023-09-07T08:37:39;33.96;31.54
74946;HTU21D;63509;45.250;38.102;2023-09-07T08:40:06;33.96;30.85
74946;HTU21D;63509;45.250;38.102;2023-09-07T08:42:38;34.01;30.81
74946;HTU21D;63509;45.250;38.102;2023-09-07T08:45:04;34.07;30.82
74946;HTU21D;63509;45.250;38.102;2023-09-07T08:47:35;34.11;30.71
74946;HTU21D;63509;45.250;38.102;2023-09-07T08:50:02;34.18;30.45
74946;HTU21D;63509;45.250;38.102;2023-09-07T08:52:30;34.15;30.07
74946;HTU21D;63509;45.250;38.102;2023-09-07T08:54:56;34.15;29.97
74946;HTU21D;63509;45.250;38.102;2023-09-07T08:57:29;34.24;29.77
74946;HTU21D;63509;45.250;38.102;2023-09-07T08:59:56;34.36;29.42
74946;HTU21D;63509;45.250;38.102;2023-09-07T09:02:22;34.41;29.28
74946;HTU21D;63509;45.250;38.102;2023-09-07T09:04:48;34.42;28.82
74946;HTU21D;63509;45.250;38.102;2023-09-07T09:07:18;34.42;28.94
74946;HTU21D;63509;45.250;38.102;2023-09-07T09:09:44;34.52;29.06
74946;HTU21D;63509;45.250;38.102;2023-09-07T09:12:13;34.64;29.10
74946;HTU21D;63509;45.250;38.102;2023-09-07T09:14:44;34.74;29.39
74946;HTU21D;63509;45.250;38.102;2023-09-07T09:17:14;34.81;29.36
74946;HTU21D;63509;45.250;38.102;2023-09-07T09:19:41;34.89;29.04
74946;HTU21D;63509;45.250;38.102;2023-09-07T09:22:08;34.94;28.82
74946;HTU21D;63509;45.250;38.102;2023-09-07T09:24:34;34.96;28.66
74946;HTU21D;63509;45.250;38.102;2023-09-07T09:27:01;34.95;28.45
74946;HTU21D;63509;45.250;38.102;2023-09-07T09:29:27;34.89;28.29
74946;HTU21D;63509;45.250;38.102;2023-09-07T09:31:54;34.89;28.43
74946;HTU21D;63509;45.250;38.102;2023-09-07T09:34:20;34.95;28.19
74946;HTU21D;63509;45.250;38.102;2023-09-07T09:36:47;35.03;27.84
74946;HTU21D;63509;45.250;38.102;2023-09-07T09:39:25;35.08;28.16
74946;HTU21D;63509;45.250;38.102;2023-09-07T09:41:54;35.04;27.77
74946;HTU21D;63509;45.250;38.102;2023-09-07T09:44:23;35.05;27.87
74946;HTU21D;63509;45.250;38.102;2023-09-07T09:46:53;35.07;27.73
74946;HTU21D;63509;45.250;38.102;2023-09-07T09:49:22;35.13;27.67
74946;HTU21D;63509;45.250;38.102;2023-09-07T09:51:49;35.21;27.72
74946;HTU21D;63509;45.250;38.102;2023-09-07T09:54:18;35.26;27.47
74946;HTU21D;63509;45.250;38.102;2023-09-07T09:56:44;35.16;27.16
74946;HTU21D;63509;45.250;38.102;2023-09-07T09:59:13;35.10;27.34
74946;HTU21D;63509;45.250;38.102;2023-09-07T10:01:47;35.12;27.10
74946;HTU21D;63509;45.250;38.102;2023-09-07T10:04:17;35.12;27.24
74946;HTU21D;63509;45.250;38.102;2023-09-07T10:06:54;35.20;27.24
74946;HTU21D;63509;45.250;38.102;2023-09-07T10:09:21;35.28;26.30
74946;HTU21D;63509;45.250;38.102;2023-09-07T10:11:53;35.40;26.55
74946;HTU21D;63509;45.250;38.102;2023-09-07T10:14:20;35.42;25.88
74946;HTU21D;63509;45.250;38.102;2023-09-07T10:16:48;35.44;25.67
74946;HTU21D;63509;45.250;38.102;2023-09-07T10:19:22;35.42;25.93
74946;HTU21D;63509;45.250;38.102;2023-09-07T10:21:50;35.33;25.46
74946;HTU21D;63509;45.250;38.102;2023-09-07T10:24:33;35.34;25.95
74946;HTU21D;63509;45.250;38.102;2023-09-07T10:27:03;35.27;25.40
74946;HTU21D;63509;45.250;38.102;2023-09-07T10:32:09;35.04;25.55
74946;HTU21D;63509;45.250;38.102;2023-09-07T10:34:39;34.93;26.03
74946;HTU21D;63509;45.250;38.102;2023-09-07T10:37:10;34.86;25.80
74946;HTU21D;63509;45.250;38.102;2023-09-07T10:39:42;34.77;25.85
74946;HTU21D;63509;45.250;38.102;2023-09-07T10:42:21;34.77;26.27
74946;HTU21D;63509;45.250;38.102;2023-09-07T10:44:48;34.80;25.91
74946;HTU21D;63509;45.250;38.102;2023-09-07T10:47:14;34.84;25.94
74946;HTU21D;63509;45.250;38.102;2023-09-07T10:49:43;34.86;25.97
74946;HTU21D;63509;45.250;38.102;2023-09-07T10:52:10;34.90;26.01
74946;HTU21D;63509;45.250;38.102;2023-09-07T10:54:36;34.92;26.09
74946;HTU21D;63509;45.250;38.102;2023-09-07T10:57:12;34.92;26.39
74946;HTU21D;63509;45.250;38.102;2023-09-07T10:59:45;34.82;27.43
74946;HTU21D;63509;45.250;38.102;2023-09-07T11:02:12;34.75;26.86
74946;HTU21D;63509;45.250;38.102;2023-09-07T11:04:38;34.71;26.83
74946;HTU21D;63509;45.250;38.102;2023-09-07T11:07:04;34.75;26.62
74946;HTU21D;63509;45.250;38.102;2023-09-07T11:09:31;34.74;26.43
74946;HTU21D;63509;45.250;38.102;2023-09-07T11:12:03;34.77;26.52
74946;HTU21D;63509;45.250;38.102;2023-09-07T11:14:30;34.73;26.12
74946;HTU21D;63509;45.250;38.102;2023-09-07T11:16:56;34.73;26.16
74946;HTU21D;63509;45.250;38.102;2023-09-07T11:19:22;34.75;26.07
74946;HTU21D;63509;45.250;38.102;2023-09-07T11:21:49;34.82;25.81
74946;HTU21D;63509;45.250;38.102;2023-09-07T11:24:17;34.85;25.58
74946;HTU21D;63509;45.250;38.102;2023-09-07T11:26:45;34.86;25.56
74946;HTU21D;63509;45.250;38.102;2023-09-07T11:29:18;34.85;25.64
74946;HTU21D;63509;45.250;38.102;2023-09-07T11:31:47;34.82;25.39
74946;HTU21D;63509;45.250;38.102;2023-09-07T11:34:15;34.79;25.49
74946;HTU21D;63509;45.250;38.102;2023-09-07T11:36:42;34.73;25.52
74946;HTU21D;63509;45.250;38.102;2023-09-07T11:39:08;34.65;26.77
74946;HTU21D;63509;45.250;38.102;2023-09-07T11:41:42;34.61;26.23
74946;HTU21D;63509;45.250;38.102;2023-09-07T11:44:08;34.55;25.85
74946;HTU21D;63509;45.250;38.102;2023-09-07T11:46:35;34.47;25.74
74946;HTU21D;63509;45.250;38.102;2023-09-07T11:49:03;34.40;25.80
74946;HTU21D;63509;45.250;38.102;2023-09-07T11:51:39;34.30;25.97
74946;HTU21D;63509;45.250;38.102;2023-09-07T11:54:05;34.23;25.65
74946;HTU21D;63509;45.250;38.102;2023-09-07T11:56:32;34.19;25.68
74946;HTU21D;63509;45.250;38.102;2023-09-07T11:58:58;34.04;25.79
74946;HTU21D;63509;45.250;38.102;2023-09-07T12:01:24;33.80;26.25
74946;HTU21D;63509;45.250;38.102;2023-09-07T12:03:51;33.47;27.18
74946;HTU21D;63509;45.250;38.102;2023-09-07T12:06:18;33.09;27.76
74946;HTU21D;63509;45.250;38.102;2023-09-07T12:08:58;32.85;28.30
74946;HTU21D;63509;45.250;38.102;2023-09-07T12:11:25;32.61;28.77
74946;HTU21D;63509;45.250;38.102;2023-09-07T12:13:53;32.39;29.00
74946;HTU21D;63509;45.250;38.102;2023-09-07T12:16:20;32.08;29.39
74946;HTU21D;63509;45.250;38.102;2023-09-07T12:18:46;31.80;29.80
74946;HTU21D;63509;45.250;38.102;2023-09-07T12:21:13;31.59;30.30
74946;HTU21D;63509;45.250;38.102;2023-09-07T12:23:39;31.42;31.03
74946;HTU21D;63509;45.250;38.102;2023-09-07T12:26:05;31.34;31.59
74946;HTU21D;63509;45.250;38.102;2023-09-07T12:28:31;31.28;31.88
74946;HTU21D;63509;45.250;38.102;2023-09-07T12:30:57;31.25;32.09
74946;HTU21D;63509;45.250;38.102;2023-09-07T12:33:26;31.22;32.31
74946;HTU21D;63509;45.250;38.102;2023-09-07T12:35:55;31.19;32.57
74946;HTU21D;63509;45.250;38.102;2023-09-07T12:38:21;31.14;32.67
74946;HTU21D;63509;45.250;38.102;2023-09-07T12:40:53;31.07;32.86
74946;HTU21D;63509;45.250;38.102;2023-09-07T12:43:19;31.04;32.97
74946;HTU21D;63509;45.250;38.102;2023-09-07T12:45:47;30.96;32.90
74946;HTU21D;63509;45.250;38.102;2023-09-07T12:48:14;30.90;32.77
74946;HTU21D;63509;45.250;38.102;2023-09-07T12:50:40;30.81;32.68
74946;HTU21D;63509;45.250;38.102;2023-09-07T12:53:06;30.74;32.67
74946;HTU21D;63509;45.250;38.102;2023-09-07T12:55:33;30.67;32.55
74946;HTU21D;63509;45.250;38.102;2023-09-07T12:58:00;30.60;32.45
74946;HTU21D;63509;45.250;38.102;2023-09-07T13:00:27;30.53;32.49
74946;HTU21D;63509;45.250;38.102;2023-09-07T13:02:55;30.46;32.44
74946;HTU21D;63509;45.250;38.102;2023-09-07T13:05:22;30.35;32.53
74946;HTU21D;63509;45.250;38.102;2023-09-07T13:07:48;30.26;32.66
74946;HTU21D;63509;45.250;38.102;2023-09-07T13:10:14;30.17;32.80
74946;HTU21D;63509;45.250;38.102;2023-09-07T13:12:41;30.10;32.85
74946;HTU21D;63509;45.250;38.102;2023-09-07T13:15:08;30.02;33.08
74946;HTU21D;63509;45.250;38.102;2023-09-07T13:17:34;29.94;33.20
74946;HTU21D;63509;45.250;38.102;2023-09-07T13:20:00;29.87;33.32
74946;HTU21D;63509;45.250;38.102;2023-09-07T13:22:26;29.80;33.57
74946;HTU21D;63509;45.250;38.102;2023-09-07T13:24:52;29.74;33.97
74946;HTU21D;63509;45.250;38.102;2023-09-07T13:27:18;29.65;34.25
74946;HTU21D;63509;45.250;38.102;2023-09-07T13:29:45;29.58;34.51
74946;HTU21D;63509;45.250;38.102;2023-09-07T13:32:11;29.52;34.79
74946;HTU21D;63509;45.250;38.102;2023-09-07T13:34:37;29.44;34.98
74946;HTU21D;63509;45.250;38.102;2023-09-07T13:37:03;29.36;35.30
74946;HTU21D;63509;45.250;38.102;2023-09-07T13:39:29;29.30;35.53
74946;HTU21D;63509;45.250;38.102;2023-09-07T13:41:55;29.23;35.64
74946;HTU21D;63509;45.250;38.102;2023-09-07T13:44:21;29.17;35.62
74946;HTU21D;63509;45.250;38.102;2023-09-07T13:46:48;29.07;35.58
74946;HTU21D;63509;45.250;38.102;2023-09-07T13:49:14;28.99;35.60
74946;HTU21D;63509;45.250;38.102;2023-09-07T13:51:40;28.91;35.71
74946;HTU21D;63509;45.250;38.102;2023-09-07T13:54:08;28.84;35.93
74946;HTU21D;63509;45.250;38.102;2023-09-07T13:56:34;28.73;35.94
74946;HTU21D;63509;45.250;38.102;2023-09-07T13:59:02;28.63;36.23
74946;HTU21D;63509;45.250;38.102;2023-09-07T14:01:28;28.57;36.53
74946;HTU21D;63509;45.250;38.102;2023-09-07T14:03:54;28.49;36.72
74946;HTU21D;63509;45.250;38.102;2023-09-07T14:06:20;28.41;36.87
74946;HTU21D;63509;45.250;38.102;2023-09-07T14:08:50;28.34;37.05
74946;HTU21D;63509;45.250;38.102;2023-09-07T14:11:17;28.30;37.14
74946;HTU21D;63509;45.250;38.102;2023-09-07T14:13:43;28.24;37.30
74946;HTU21D;63509;45.250;38.102;2023-09-07T14:16:09;28.18;37.36
74946;HTU21D;63509;45.250;38.102;2023-09-07T14:18:36;28.14;37.34
74946;HTU21D;63509;45.250;38.102;2023-09-07T14:21:02;28.08;37.43
74946;HTU21D;63509;45.250;38.102;2023-09-07T14:23:29;28.00;37.40
74946;HTU21D;63509;45.250;38.102;2023-09-07T14:25:56;27.93;37.60
74946;HTU21D;63509;45.250;38.102;2023-09-07T14:28:22;27.87;37.68
74946;HTU21D;63509;45.250;38.102;2023-09-07T14:30:48;27.81;37.72
74946;HTU21D;63509;45.250;38.102;2023-09-07T14:33:14;27.73;37.61
74946;HTU21D;63509;45.250;38.102;2023-09-07T14:35:40;27.66;37.58
74946;HTU21D;63509;45.250;38.102;2023-09-07T14:38:06;27.58;37.57
74946;HTU21D;63509;45.250;38.102;2023-09-07T14:40:32;27.51;37.66
74946;HTU21D;63509;45.250;38.102;2023-09-07T14:42:58;27.43;37.82
74946;HTU21D;63509;45.250;38.102;2023-09-07T14:45:24;27.36;37.83
74946;HTU21D;63509;45.250;38.102;2023-09-07T14:47:51;27.28;37.91
74946;HTU21D;63509;45.250;38.102;2023-09-07T14:50:18;27.23;37.79
74946;HTU21D;63509;45.250;38.102;2023-09-07T14:52:45;27.14;37.87
74946;HTU21D;63509;45.250;38.102;2023-09-07T14:55:13;27.06;38.00
74946;HTU21D;63509;45.250;38.102;2023-09-07T14:57:40;26.95;38.03
74946;HTU21D;63509;45.250;38.102;2023-09-07T15:00:07;26.85;38.24
74946;HTU21D;63509;45.250;38.102;2023-09-07T15:02:34;26.79;38.33
74946;HTU21D;63509;45.250;38.102;2023-09-07T15:05:00;26.73;38.31
74946;HTU21D;63509;45.250;38.102;2023-09-07T15:07:26;26.68;38.48
74946;HTU21D;63509;45.250;38.102;2023-09-07T15:09:52;26.63;38.60